Time;durP1;ratioP1;P1;durP2;ratioP2;P2;SDS_P1;SDS_P2;PMS_P1;PMS_P2;Temp;Humidity;BMP_temperature;BMP_pressure;BME280_temperature;BME280_humidity;BME280_pressure;Samples;Min_cycle;Max_cycle;Signal;HPM_P1;HPM_P2
2022/07/26 00:02:23;;;;;;;12.95;3.10;;;;;;;;;;5069718;28;20036;-75
2022/07/26 00:04:49;;;;;;;9.40;2.55;;;;;;;;;;5063807;28;20127;-75
2022/07/26 00:07:15;;;;;;;13.82;2.85;;;;;;;;;;5059495;28;20498;-75
2022/07/26 00:09:42;;;;;;;13.70;3.25;;;;;;;;;;5059735;28;20048;-75
2022/07/26 00:12:08;;;;;;;16.20;3.55;;;;;;;;;;5044610;28;20040;-75
2022/07/26 00:14:34;;;;;;;8.55;2.80;;;;;;;;;;5047290;28;20043;-75
2022/07/26 00:17:01;;;;;;;13.18;3.15;;;;;;;;;;5073435;28;20036;-75
2022/07/26 00:19:27;;;;;;;16.23;3.08;;;;;;;;;;5052912;28;20052;-75
2022/07/26 00:24:38;;;;;;;12.80;2.58;;;;;;;;;;5056517;28;20389;-74
2022/07/26 00:27:05;;;;;;;13.90;2.65;;;;;;;;;;5068826;28;20047;-75
2022/07/26 00:29:31;;;;;;;12.90;2.72;;;;;;;;;;5075786;28;20093;-74
2022/07/26 00:31:57;;;;;;;8.18;2.60;;;;;;;;;;5075537;28;20040;-74
2022/07/26 00:34:23;;;;;;;12.95;2.40;;;;;;;;;;5086371;28;20084;-75
2022/07/26 00:36:49;;;;;;;10.93;1.98;;;;;;;;;;5074947;28;20078;-74
2022/07/26 00:39:15;;;;;;;11.18;2.33;;;;;;;;;;5079755;28;20089;-74
2022/07/26 00:41:41;;;;;;;7.43;2.00;;;;;;;;;;5051217;28;20040;-75
2022/07/26 00:44:07;;;;;;;7.82;2.03;;;;;;;;;;5086425;28;20035;-75
2022/07/26 00:46:33;;;;;;;6.22;1.85;;;;;;;;;;5075825;28;20043;-74
2022/07/26 00:48:59;;;;;;;6.53;1.85;;;;;;;;;;5063688;28;20052;-74
2022/07/26 00:51:25;;;;;;;5.72;1.85;;;;;;;;;;5075161;28;20467;-74
2022/07/26 00:53:52;;;;;;;8.73;1.80;;;;;;;;;;5075071;28;20044;-74
2022/07/26 00:56:18;;;;;;;7.47;1.95;;;;;;;;;;5106512;28;20061;-74
2022/07/26 00:58:44;;;;;;;7.50;1.98;;;;;;;;;;5058867;28;20046;-74
2022/07/26 01:01:10;;;;;;;6.85;1.88;;;;;;;;;;5075108;28;20534;-74
2022/07/26 01:03:36;;;;;;;5.70;1.80;;;;;;;;;;5076618;28;20090;-75
2022/07/26 01:06:02;;;;;;;8.02;2.22;;;;;;;;;;5087661;28;20043;-75
2022/07/26 01:08:28;;;;;;;5.97;1.80;;;;;;;;;;5091189;28;20071;-75
2022/07/26 01:10:55;;;;;;;6.65;1.83;;;;;;;;;;5084387;28;20085;-75
2022/07/26 01:13:21;;;;;;;4.90;2.05;;;;;;;;;;5095180;28;20063;-75
2022/07/26 01:15:48;;;;;;;7.63;1.80;;;;;;;;;;5090061;28;20403;-75
2022/07/26 01:18:14;;;;;;;5.72;2.47;;;;;;;;;;5065799;28;20400;-74
2022/07/26 01:20:40;;;;;;;5.47;1.80;;;;;;;;;;5044458;28;20040;-75
2022/07/26 01:23:07;;;;;;;6.60;1.90;;;;;;;;;;5073222;28;20129;-74
2022/07/26 01:25:35;;;;;;;4.93;1.83;;;;;;;;;;5071011;28;20055;-75
2022/07/26 01:28:02;;;;;;;8.27;2.30;;;;;;;;;;5067909;28;20517;-75
2022/07/26 01:30:28;;;;;;;8.65;2.00;;;;;;;;;;5061727;28;20519;-75
2022/07/26 01:32:54;;;;;;;6.78;1.90;;;;;;;;;;5079231;28;20047;-74
2022/07/26 01:35:20;;;;;;;6.55;2.30;;;;;;;;;;5088721;28;20470;-74
2022/07/26 01:37:46;;;;;;;8.05;2.70;;;;;;;;;;5071866;28;20040;-75
2022/07/26 01:40:13;;;;;;;7.22;2.10;;;;;;;;;;5047228;28;20032;-75
2022/07/26 01:42:39;;;;;;;6.35;2.20;;;;;;;;;;5064257;28;20044;-74
2022/07/26 01:45:09;;;;;;;8.02;2.60;;;;;;;;;;5059301;28;20070;-74
2022/07/26 01:47:35;;;;;;;8.32;2.90;;;;;;;;;;5106555;28;20071;-74
2022/07/26 01:50:03;;;;;;;9.35;2.83;;;;;;;;;;5105898;28;20035;-74
2022/07/26 01:52:29;;;;;;;7.07;2.92;;;;;;;;;;5064259;28;20033;-75
2022/07/26 01:54:55;;;;;;;11.18;3.03;;;;;;;;;;5074342;28;20078;-75
2022/07/26 01:57:21;;;;;;;7.13;3.03;;;;;;;;;;5078892;28;20036;-75
2022/07/26 01:59:47;;;;;;;8.77;3.05;;;;;;;;;;5091047;28;20040;-75
2022/07/26 02:02:13;;;;;;;7.93;2.85;;;;;;;;;;5085235;28;20039;-74
2022/07/26 02:04:57;;;;;;;6.47;3.20;;;;;;;;;;5058209;28;20040;-74
2022/07/26 02:07:30;;;;;;;6.40;2.75;;;;;;;;;;5081384;28;20043;-75
2022/07/26 02:09:57;;;;;;;6.72;3.47;;;;;;;;;;5077684;28;20384;-75
2022/07/26 02:12:23;;;;;;;6.03;3.40;;;;;;;;;;5057255;28;20032;-75
2022/07/26 02:14:49;;;;;;;5.97;3.20;;;;;;;;;;5057389;28;20044;-76
2022/07/26 02:17:16;;;;;;;10.50;3.72;;;;;;;;;;5064234;28;20040;-76
2022/07/26 02:19:42;;;;;;;9.13;3.92;;;;;;;;;;5085955;28;20036;-76
2022/07/26 02:22:08;;;;;;;7.80;3.65;;;;;;;;;;5074509;28;20068;-75
2022/07/26 02:24:34;;;;;;;8.55;3.80;;;;;;;;;;5081278;28;20040;-75
2022/07/26 02:27:00;;;;;;;6.97;3.72;;;;;;;;;;5079967;28;20404;-75
2022/07/26 02:29:27;;;;;;;10.40;3.85;;;;;;;;;;5079816;28;20092;-75
2022/07/26 02:31:54;;;;;;;9.25;4.38;;;;;;;;;;5083691;28;20049;-75
2022/07/26 02:34:20;;;;;;;8.38;4.28;;;;;;;;;;5074203;28;20047;-75
2022/07/26 02:36:47;;;;;;;7.13;4.18;;;;;;;;;;5083811;28;20492;-74
2022/07/26 02:39:13;;;;;;;8.50;4.00;;;;;;;;;;5077952;28;20560;-75
2022/07/26 02:41:39;;;;;;;7.70;3.85;;;;;;;;;;5061205;28;20396;-75
2022/07/26 02:44:06;;;;;;;11.82;4.57;;;;;;;;;;5060991;28;20519;-75
2022/07/26 02:46:32;;;;;;;7.30;3.42;;;;;;;;;;5078312;28;20044;-75
2022/07/26 02:49:01;;;;;;;10.15;3.60;;;;;;;;;;5082538;28;20067;-75
2022/07/26 02:51:27;;;;;;;7.97;3.40;;;;;;;;;;5061102;28;20044;-74
2022/07/26 02:53:53;;;;;;;5.28;3.30;;;;;;;;;;5084137;28;20043;-74
2022/07/26 02:56:19;;;;;;;10.50;3.40;;;;;;;;;;5065059;28;20039;-74
2022/07/26 02:58:45;;;;;;;6.97;3.25;;;;;;;;;;5043663;28;20044;-74
2022/07/26 03:01:11;;;;;;;3.63;1.90;;;;;;;;;;5079449;28;20370;-75
2022/07/26 03:03:38;;;;;;;4.25;1.70;;;;;;;;;;5087428;28;20039;-75
2022/07/26 03:06:04;;;;;;;3.13;2.05;;;;;;;;;;5088610;28;20028;-76
2022/07/26 03:08:30;;;;;;;4.30;1.90;;;;;;;;;;5077514;28;20043;-76
2022/07/26 03:10:56;;;;;;;4.43;2.10;;;;;;;;;;5060629;28;20506;-75
2022/07/26 03:13:22;;;;;;;5.18;1.70;;;;;;;;;;5066528;28;20430;-75
2022/07/26 03:15:48;;;;;;;6.78;2.22;;;;;;;;;;5060389;28;20044;-75
2022/07/26 03:18:14;;;;;;;5.93;2.20;;;;;;;;;;5088573;28;20039;-75
2022/07/26 03:20:40;;;;;;;8.55;2.47;;;;;;;;;;5092424;28;20130;-74
2022/07/26 03:23:06;;;;;;;7.78;2.90;;;;;;;;;;5067836;28;20088;-76
2022/07/26 03:25:32;;;;;;;6.47;2.80;;;;;;;;;;5059299;28;20098;-74
2022/07/26 03:27:58;;;;;;;7.75;2.95;;;;;;;;;;5090117;28;20047;-75
2022/07/26 03:30:25;;;;;;;9.07;3.25;;;;;;;;;;5077526;28;20399;-76
2022/07/26 03:32:51;;;;;;;5.75;2.33;;;;;;;;;;5077258;28;20157;-75
2022/07/26 03:35:17;;;;;;;6.88;2.60;;;;;;;;;;5054820;28;20039;-75
2022/07/26 03:37:43;;;;;;;6.88;2.42;;;;;;;;;;5081562;28;20487;-73
2022/07/26 03:40:09;;;;;;;8.40;2.53;;;;;;;;;;5077216;28;20036;-75
2022/07/26 03:42:35;;;;;;;8.40;2.47;;;;;;;;;;5059900;28;20040;-75
2022/07/26 03:45:01;;;;;;;7.88;2.50;;;;;;;;;;5077084;28;20040;-76
2022/07/26 03:47:28;;;;;;;7.43;2.42;;;;;;;;;;5090104;28;20036;-76
2022/07/26 03:49:54;;;;;;;7.22;2.05;;;;;;;;;;5066576;28;20067;-76
2022/07/26 03:52:20;;;;;;;6.38;2.60;;;;;;;;;;5068575;28;20052;-75
2022/07/26 03:54:46;;;;;;;7.85;2.70;;;;;;;;;;5079870;28;20036;-75
2022/07/26 03:57:12;;;;;;;8.38;2.17;;;;;;;;;;5087430;28;20036;-74
2022/07/26 03:59:38;;;;;;;7.10;1.83;;;;;;;;;;5090718;28;20484;-74
2022/07/26 04:02:04;;;;;;;7.13;1.90;;;;;;;;;;5075555;28;20532;-74
2022/07/26 04:04:30;;;;;;;9.32;1.77;;;;;;;;;;5089153;28;20047;-75
2022/07/26 04:06:56;;;;;;;7.47;1.75;;;;;;;;;;5076446;28;20047;-74
2022/07/26 04:09:22;;;;;;;6.78;1.70;;;;;;;;;;5085393;28;20035;-75
2022/07/26 04:11:49;;;;;;;4.55;1.45;;;;;;;;;;5075582;28;20074;-75
2022/07/26 04:14:15;;;;;;;7.03;1.50;;;;;;;;;;5065062;28;20109;-75
2022/07/26 04:16:41;;;;;;;8.18;1.67;;;;;;;;;;5079475;28;20545;-76
2022/07/26 04:19:07;;;;;;;5.50;1.60;;;;;;;;;;5076652;28;20036;-75
2022/07/26 04:21:33;;;;;;;7.35;1.73;;;;;;;;;;5076930;28;20485;-76
2022/07/26 04:23:59;;;;;;;8.40;1.55;;;;;;;;;;5080552;28;20070;-76
2022/07/26 04:26:26;;;;;;;5.50;1.30;;;;;;;;;;5075348;28;20047;-76
2022/07/26 04:28:52;;;;;;;8.75;1.90;;;;;;;;;;5062468;28;20132;-76
2022/07/26 04:31:18;;;;;;;7.35;1.50;;;;;;;;;;5079537;28;20067;-75
2022/07/26 04:33:44;;;;;;;5.70;1.60;;;;;;;;;;5075932;28;20036;-76
2022/07/26 04:36:11;;;;;;;8.23;1.48;;;;;;;;;;5075946;28;20052;-74
2022/07/26 04:38:37;;;;;;;6.20;1.33;;;;;;;;;;5083991;28;20123;-76
2022/07/26 04:41:03;;;;;;;7.40;1.48;;;;;;;;;;5100042;28;20035;-77
2022/07/26 04:43:29;;;;;;;6.00;1.30;;;;;;;;;;5077400;28;20570;-77
2022/07/26 04:45:56;;;;;;;5.68;1.40;;;;;;;;;;5062073;28;20492;-77
2022/07/26 04:48:22;;;;;;;5.22;1.77;;;;;;;;;;5061684;28;20048;-77
2022/07/26 04:50:48;;;;;;;9.88;1.52;;;;;;;;;;5075617;28;20062;-77
2022/07/26 04:53:14;;;;;;;5.80;1.33;;;;;;;;;;5075532;28;20040;-77
2022/07/26 04:55:41;;;;;;;7.43;1.65;;;;;;;;;;5062130;28;20481;-77
2022/07/26 04:58:08;;;;;;;7.57;1.42;;;;;;;;;;5083427;28;20119;-77
2022/07/26 05:00:34;;;;;;;8.40;1.30;;;;;;;;;;5072669;28;20046;-75
2022/07/26 05:03:01;;;;;;;7.20;1.30;;;;;;;;;;5091250;28;20559;-76
2022/07/26 05:05:28;;;;;;;7.32;1.50;;;;;;;;;;5067491;28;20032;-75
2022/07/26 05:07:55;;;;;;;6.53;1.55;;;;;;;;;;5055201;28;20501;-77
2022/07/26 05:10:22;;;;;;;5.00;1.10;;;;;;;;;;5069870;28;20105;-77
2022/07/26 05:12:49;;;;;;;6.47;1.10;;;;;;;;;;5065062;28;20062;-74
2022/07/26 05:15:15;;;;;;;6.22;1.10;;;;;;;;;;5073843;28;20123;-75
2022/07/26 05:17:42;;;;;;;5.05;1.17;;;;;;;;;;5093009;28;20397;-74
2022/07/26 05:20:09;;;;;;;5.88;1.05;;;;;;;;;;5058275;28;20388;-76
2022/07/26 05:22:36;;;;;;;5.28;1.05;;;;;;;;;;5058166;28;20058;-74
2022/07/26 05:25:03;;;;;;;6.00;1.38;;;;;;;;;;5050614;28;20070;-76
2022/07/26 05:27:29;;;;;;;4.28;1.10;;;;;;;;;;5060110;28;20051;-79
2022/07/26 05:29:55;;;;;;;5.80;0.98;;;;;;;;;;5090676;28;20048;-77
2022/07/26 05:32:22;;;;;;;5.95;1.50;;;;;;;;;;5074436;28;20040;-76
2022/07/26 05:34:48;;;;;;;4.15;0.95;;;;;;;;;;5074172;28;20109;-78
2022/07/26 05:37:14;;;;;;;7.72;1.10;;;;;;;;;;5057070;28;20127;-77
2022/07/26 05:39:40;;;;;;;5.07;0.90;;;;;;;;;;5073583;28;20514;-76
2022/07/26 05:42:06;;;;;;;5.43;1.20;;;;;;;;;;5074217;28;20366;-76
2022/07/26 05:44:33;;;;;;;5.40;0.75;;;;;;;;;;5057055;28;20117;-74
2022/07/26 05:46:59;;;;;;;4.05;0.90;;;;;;;;;;5066250;28;20047;-79
2022/07/26 05:49:25;;;;;;;5.90;0.90;;;;;;;;;;5089503;28;20040;-77
2022/07/26 05:51:51;;;;;;;3.22;0.70;;;;;;;;;;5073995;28;20396;-75
2022/07/26 05:54:19;;;;;;;4.55;0.90;;;;;;;;;;5074012;28;20040;-77
2022/07/26 05:56:46;;;;;;;3.47;0.77;;;;;;;;;;5057066;28;20044;-75
2022/07/26 05:59:12;;;;;;;5.57;1.02;;;;;;;;;;5074777;28;20121;-75
2022/07/26 06:01:38;;;;;;;4.18;1.00;;;;;;;;;;5092037;28;20055;-76
2022/07/26 06:04:04;;;;;;;6.50;1.15;;;;;;;;;;5073212;28;20127;-76
2022/07/26 06:06:30;;;;;;;5.60;1.10;;;;;;;;;;5073721;28;20591;-77
2022/07/26 06:08:56;;;;;;;4.45;0.82;;;;;;;;;;5067238;28;20035;-75
2022/07/26 06:11:22;;;;;;;3.75;1.02;;;;;;;;;;5073513;28;20032;-76
2022/07/26 06:13:48;;;;;;;1.63;0.60;;;;;;;;;;5080546;28;20119;-75
2022/07/26 06:16:14;;;;;;;4.45;0.90;;;;;;;;;;5057166;28;20098;-76
2022/07/26 06:18:41;;;;;;;2.38;0.80;;;;;;;;;;5073445;28;20423;-76
2022/07/26 06:21:07;;;;;;;8.30;1.00;;;;;;;;;;5074065;28;20104;-77
2022/07/26 06:23:50;;;;;;;4.90;0.90;;;;;;;;;;5026288;28;20048;-77
2022/07/26 06:26:16;;;;;;;4.53;0.88;;;;;;;;;;5056816;28;20044;-76
2022/07/26 06:28:42;;;;;;;4.88;0.77;;;;;;;;;;5056828;28;20063;-76
2022/07/26 06:31:09;;;;;;;5.75;0.93;;;;;;;;;;5073244;28;20048;-75
2022/07/26 06:33:35;;;;;;;4.03;0.73;;;;;;;;;;5098739;28;20131;-71
2022/07/26 06:36:01;;;;;;;5.82;0.88;;;;;;;;;;5056735;28;20094;-76
2022/07/26 06:38:28;;;;;;;3.75;0.80;;;;;;;;;;5057434;28;20045;-74
2022/07/26 06:40:54;;;;;;;4.75;0.70;;;;;;;;;;5083077;28;20055;-73
2022/07/26 06:43:20;;;;;;;4.25;0.70;;;;;;;;;;5076682;28;20044;-75
2022/07/26 06:45:48;;;;;;;5.57;0.80;;;;;;;;;;5062312;28;20036;-73
2022/07/26 06:48:14;;;;;;;5.18;0.70;;;;;;;;;;5056386;28;20052;-75
2022/07/26 06:50:40;;;;;;;8.43;1.40;;;;;;;;;;5071331;28;20036;-78
2022/07/26 06:53:06;;;;;;;4.75;0.65;;;;;;;;;;5078685;28;20048;-75
2022/07/26 06:55:32;;;;;;;5.93;0.73;;;;;;;;;;5076837;28;20074;-75
2022/07/26 06:57:58;;;;;;;4.88;0.80;;;;;;;;;;5069925;28;20039;-75
2022/07/26 07:00:25;;;;;;;3.00;0.63;;;;;;;;;;5100316;28;20400;-75
2022/07/26 07:02:51;;;;;;;2.35;0.60;;;;;;;;;;5082006;28;20044;-75
2022/07/26 07:05:17;;;;;;;5.80;0.80;;;;;;;;;;5077938;28;20093;-76
2022/07/26 07:07:43;;;;;;;4.70;0.65;;;;;;;;;;5087513;28;20044;-75
2022/07/26 07:10:09;;;;;;;3.33;0.70;;;;;;;;;;5066929;28;20078;-80
2022/07/26 07:12:35;;;;;;;4.40;0.82;;;;;;;;;;5075691;28;20044;-75
2022/07/26 07:15:01;;;;;;;3.55;0.70;;;;;;;;;;5070138;28;20051;-75
2022/07/26 07:17:27;;;;;;;3.88;0.93;;;;;;;;;;5075387;28;20499;-79
2022/07/26 07:19:54;;;;;;;2.47;0.60;;;;;;;;;;5076984;28;20032;-77
2022/07/26 07:22:20;;;;;;;1.83;0.40;;;;;;;;;;5060304;28;20056;-77
2022/07/26 07:24:46;;;;;;;2.53;0.47;;;;;;;;;;5067747;28;20056;-80
2022/07/26 07:27:12;;;;;;;4.45;0.43;;;;;;;;;;5061753;28;20050;-76
2022/07/26 07:29:40;;;;;;;3.00;0.75;;;;;;;;;;5045739;28;20079;-78
2022/07/26 07:32:06;;;;;;;1.77;0.50;;;;;;;;;;5059122;28;20397;-80
2022/07/26 07:34:32;;;;;;;3.30;0.65;;;;;;;;;;5063886;28;20492;-75
2022/07/26 07:36:58;;;;;;;3.10;0.80;;;;;;;;;;5075980;28;20041;-72
2022/07/26 07:39:24;;;;;;;4.47;0.60;;;;;;;;;;5062013;28;20040;-67
2022/07/26 07:41:50;;;;;;;4.25;0.73;;;;;;;;;;5084171;28;20036;-70
2022/07/26 07:44:17;;;;;;;4.22;0.77;;;;;;;;;;5079073;28;20497;-70
2022/07/26 07:46:43;;;;;;;3.15;0.70;;;;;;;;;;5072635;28;20492;-70
2022/07/26 07:49:09;;;;;;;3.17;0.93;;;;;;;;;;5091276;28;20123;-70
2022/07/26 07:51:35;;;;;;;4.38;0.70;;;;;;;;;;5099404;28;20061;-70
2022/07/26 07:54:02;;;;;;;6.85;0.80;;;;;;;;;;5101254;28;20039;-70
2022/07/26 07:56:28;;;;;;;3.88;0.70;;;;;;;;;;5111116;28;20086;-69
2022/07/26 07:58:54;;;;;;;4.18;0.77;;;;;;;;;;5081807;28;20043;-71
2022/07/26 08:01:20;;;;;;;3.70;0.60;;;;;;;;;;5107763;28;20126;-71
2022/07/26 08:03:46;;;;;;;4.80;0.90;;;;;;;;;;5112683;28;20028;-72
2022/07/26 08:06:12;;;;;;;6.72;0.90;;;;;;;;;;5084271;28;20401;-71
2022/07/26 08:08:38;;;;;;;3.95;0.95;;;;;;;;;;5074714;28;20036;-70
2022/07/26 08:11:05;;;;;;;3.55;0.68;;;;;;;;;;5091229;28;20048;-69
2022/07/26 08:13:31;;;;;;;3.25;0.68;;;;;;;;;;5104053;28;20122;-71
2022/07/26 08:15:57;;;;;;;4.32;0.80;;;;;;;;;;5105644;28;20031;-70
2022/07/26 08:18:23;;;;;;;4.88;1.08;;;;;;;;;;5075824;28;20043;-71
2022/07/26 08:20:50;;;;;;;3.38;0.80;;;;;;;;;;5075968;28;20416;-70
2022/07/26 08:23:16;;;;;;;2.90;0.90;;;;;;;;;;5093044;28;20131;-70
2022/07/26 08:25:43;;;;;;;3.92;0.70;;;;;;;;;;5075574;28;20123;-71
2022/07/26 08:28:09;;;;;;;3.65;0.80;;;;;;;;;;5069277;28;20043;-71
2022/07/26 08:30:35;;;;;;;3.85;0.77;;;;;;;;;;5078346;28;20113;-73
2022/07/26 08:33:01;;;;;;;3.28;0.82;;;;;;;;;;5058049;28;20089;-71
2022/07/26 08:35:28;;;;;;;3.80;0.90;;;;;;;;;;5093350;28;20044;-72
2022/07/26 08:37:54;;;;;;;4.10;0.88;;;;;;;;;;5075735;28;20044;-72
2022/07/26 08:40:20;;;;;;;6.57;1.05;;;;;;;;;;5074303;28;20527;-72
2022/07/26 08:42:50;;;;;;;5.00;0.90;;;;;;;;;;5091576;28;20032;-70
2022/07/26 08:45:23;;;;;;;4.95;1.02;;;;;;;;;;5076088;28;20065;-67
2022/07/26 08:47:50;;;;;;;5.82;1.08;;;;;;;;;;5073642;28;20047;-69
2022/07/26 08:50:16;;;;;;;5.63;1.02;;;;;;;;;;5092064;28;20063;-69
2022/07/26 08:52:42;;;;;;;6.00;1.10;;;;;;;;;;5075341;28;20032;-69
2022/07/26 08:55:09;;;;;;;4.20;0.88;;;;;;;;;;5089216;28;20043;-70
2022/07/26 08:57:35;;;;;;;6.53;1.10;;;;;;;;;;5081503;28;20062;-69
2022/07/26 09:00:14;;;;;;;12.05;1.10;;;;;;;;;;5072381;28;20040;-68
2022/07/26 09:02:41;;;;;;;6.20;1.10;;;;;;;;;;5063146;28;20047;-69
2022/07/26 09:05:07;;;;;;;5.50;1.15;;;;;;;;;;5080130;28;20123;-69
2022/07/26 09:07:33;;;;;;;3.50;0.90;;;;;;;;;;5068416;28;20044;-69
2022/07/26 09:10:06;;;;;;;5.95;1.10;;;;;;;;;;5095092;28;20054;-68
2022/07/26 09:12:32;;;;;;;5.72;1.10;;;;;;;;;;5081319;28;20039;-69
2022/07/26 09:14:59;;;;;;;4.70;1.10;;;;;;;;;;5083463;28;20064;-68
2022/07/26 09:17:36;;;;;;;4.90;1.05;;;;;;;;;;5074405;28;20633;-68
2022/07/26 09:20:05;;;;;;;6.00;0.90;;;;;;;;;;5075341;28;20128;-68
2022/07/26 09:22:31;;;;;;;3.08;0.90;;;;;;;;;;5104439;28;20048;-67
2022/07/26 09:24:57;;;;;;;7.20;1.10;;;;;;;;;;5103164;28;20060;-69
2022/07/26 09:27:23;;;;;;;6.18;1.20;;;;;;;;;;5076688;28;20040;-68
2022/07/26 09:29:51;;;;;;;4.70;1.02;;;;;;;;;;5102409;28;20043;-69
2022/07/26 09:32:19;;;;;;;4.55;0.85;;;;;;;;;;5098687;28;20035;-69
2022/07/26 09:34:51;;;;;;;6.28;1.00;;;;;;;;;;5104076;28;20059;-68
2022/07/26 09:37:18;;;;;;;3.25;1.00;;;;;;;;;;5085962;28;20047;-68
2022/07/26 09:39:57;;;;;;;5.15;1.20;;;;;;;;;;5104571;28;20066;-68
2022/07/26 09:42:24;;;;;;;7.32;1.25;;;;;;;;;;5072357;28;20044;-69
2022/07/26 09:44:50;;;;;;;5.68;1.63;;;;;;;;;;5093124;28;20044;-68
2022/07/26 09:47:16;;;;;;;7.55;1.55;;;;;;;;;;5096276;28;20071;-68
2022/07/26 09:49:42;;;;;;;5.65;1.30;;;;;;;;;;5048886;28;20039;-67
2022/07/26 09:52:15;;;;;;;7.15;1.52;;;;;;;;;;5086950;28;20040;-68
2022/07/26 09:54:44;;;;;;;6.55;1.23;;;;;;;;;;5093017;28;20476;-67
2022/07/26 09:57:11;;;;;;;7.15;1.17;;;;;;;;;;5092923;28;20070;-67
2022/07/26 09:59:37;;;;;;;5.63;1.23;;;;;;;;;;5086080;28;20028;-67
2022/07/26 10:02:04;;;;;;;7.53;1.50;;;;;;;;;;5090513;28;20032;-67
2022/07/26 10:04:30;;;;;;;8.80;1.63;;;;;;;;;;5072927;28;20048;-66
2022/07/26 10:07:01;;;;;;;7.10;1.50;;;;;;;;;;5067487;28;20047;-67
2022/07/26 10:09:33;;;;;;;11.40;1.83;;;;;;;;;;5090596;28;20040;-67
2022/07/26 10:12:03;;;;;;;7.72;1.48;;;;;;;;;;5088958;28;20532;-67
2022/07/26 10:14:32;;;;;;;8.70;1.70;;;;;;;;;;5091223;28;20050;-66
2022/07/26 10:16:58;;;;;;;7.03;1.70;;;;;;;;;;5091605;28;20040;-67
2022/07/26 10:19:38;;;;;;;7.43;1.60;;;;;;;;;;5072835;28;20034;-67
2022/07/26 10:22:23;;;;;;;7.50;1.20;;;;;;;;;;5069349;28;20086;-67
2022/07/26 10:24:53;;;;;;;8.50;1.77;;;;;;;;;;5072540;28;20052;-66
2022/07/26 10:27:40;;;;;;;9.15;1.30;;;;;;;;;;5091316;28;20047;-67
2022/07/26 10:30:18;;;;;;;8.88;1.73;;;;;;;;;;5082350;28;20042;-67
2022/07/26 10:32:50;;;;;;;7.80;1.40;;;;;;;;;;5088941;28;20032;-66
2022/07/26 10:35:40;;;;;;;7.85;1.75;;;;;;;;;;5061576;28;20052;-66
2022/07/26 10:38:10;;;;;;;8.15;1.50;;;;;;;;;;5086056;28;20047;-67
2022/07/26 10:40:37;;;;;;;9.13;1.80;;;;;;;;;;5070502;28;20573;-68
2022/07/26 10:43:11;;;;;;;8.02;1.45;;;;;;;;;;5054672;28;20033;-67
2022/07/26 10:45:38;;;;;;;7.43;1.33;;;;;;;;;;5071238;28;20045;-67
2022/07/26 10:48:11;;;;;;;9.18;1.60;;;;;;;;;;5084515;28;20038;-68
2022/07/26 10:50:37;;;;;;;8.02;1.50;;;;;;;;;;5094755;28;20504;-68
2022/07/26 10:53:03;;;;;;;5.95;1.20;;;;;;;;;;5064514;28;20043;-68
2022/07/26 10:55:29;;;;;;;7.05;1.38;;;;;;;;;;5075797;28;20176;-68
2022/07/26 10:57:55;;;;;;;7.75;1.20;;;;;;;;;;5092644;28;20050;-67
2022/07/26 11:00:25;;;;;;;6.68;1.33;;;;;;;;;;5084430;28;20129;-68
2022/07/26 11:02:55;;;;;;;6.35;1.90;;;;;;;;;;5078703;28;20048;-67
2022/07/26 11:05:26;;;;;;;6.18;1.13;;;;;;;;;;5084970;28;20086;-67
2022/07/26 11:07:54;;;;;;;7.53;1.50;;;;;;;;;;5083229;28;20040;-67
2022/07/26 11:10:24;;;;;;;8.35;1.65;;;;;;;;;;5088654;28;20047;-67
2022/07/26 11:13:07;;;;;;;5.53;1.40;;;;;;;;;;5072538;28;20050;-68
2022/07/26 11:15:33;;;;;;;8.40;1.30;;;;;;;;;;5071853;28;20384;-67
2022/07/26 11:18:07;;;;;;;7.93;1.38;;;;;;;;;;5091041;28;20415;-68
2022/07/26 11:20:33;;;;;;;8.15;1.30;;;;;;;;;;5067502;28;20469;-66
2022/07/26 11:22:59;;;;;;;7.93;1.55;;;;;;;;;;5073717;28;20102;-68
2022/07/26 11:25:26;;;;;;;4.43;1.13;;;;;;;;;;5074672;28;20059;-67
2022/07/26 11:28:05;;;;;;;5.22;1.10;;;;;;;;;;5093284;28;20042;-68
2022/07/26 11:30:31;;;;;;;5.85;1.13;;;;;;;;;;5080244;28;20432;-68
2022/07/26 11:33:00;;;;;;;7.82;1.33;;;;;;;;;;5068541;28;20044;-67
2022/07/26 11:35:26;;;;;;;4.28;1.25;;;;;;;;;;5084385;28;20035;-67
2022/07/26 11:37:53;;;;;;;4.82;1.20;;;;;;;;;;5060631;28;20072;-68
2022/07/26 11:40:39;;;;;;;7.20;1.17;;;;;;;;;;5076785;28;20047;-69
2022/07/26 11:43:05;;;;;;;6.28;1.38;;;;;;;;;;5074632;28;20040;-69
2022/07/26 11:45:31;;;;;;;5.35;0.90;;;;;;;;;;5072505;28;20040;-67
2022/07/26 11:47:58;;;;;;;6.35;1.25;;;;;;;;;;5086236;28;20447;-68
2022/07/26 11:50:24;;;;;;;5.90;1.30;;;;;;;;;;5073931;28;20183;-68
2022/07/26 11:52:50;;;;;;;4.70;1.10;;;;;;;;;;5085203;28;20705;-68
2022/07/26 11:55:24;;;;;;;4.47;1.17;;;;;;;;;;5085820;28;20040;-69
2022/07/26 11:57:51;;;;;;;4.90;1.25;;;;;;;;;;5063672;28;20054;-69
2022/07/26 12:00:17;;;;;;;6.63;1.30;;;;;;;;;;5072773;28;20045;-68
2022/07/26 12:02:43;;;;;;;5.40;1.30;;;;;;;;;;5074794;28;20482;-67
2022/07/26 12:05:20;;;;;;;6.57;1.35;;;;;;;;;;5053811;28;20049;-68
2022/07/26 12:07:54;;;;;;;8.25;1.40;;;;;;;;;;5075955;28;20569;-68
2022/07/26 12:10:20;;;;;;;3.40;0.93;;;;;;;;;;5086204;28;20473;-68
2022/07/26 12:12:46;;;;;;;5.38;1.00;;;;;;;;;;5084459;28;20123;-68
2022/07/26 12:15:14;;;;;;;7.32;1.00;;;;;;;;;;5093874;28;20036;-68
2022/07/26 12:17:57;;;;;;;5.43;1.58;;;;;;;;;;5081495;28;20401;-67
2022/07/26 12:20:26;;;;;;;8.43;1.30;;;;;;;;;;5071034;28;20033;-67
2022/07/26 12:22:57;;;;;;;3.95;1.05;;;;;;;;;;5086584;28;20044;-67
2022/07/26 12:25:27;;;;;;;4.65;1.00;;;;;;;;;;5086391;28;20062;-67
2022/07/26 12:27:53;;;;;;;4.72;0.93;;;;;;;;;;5088459;28;20039;-67
2022/07/26 12:30:19;;;;;;;7.00;1.10;;;;;;;;;;5080681;28;20043;-67
2022/07/26 12:32:47;;;;;;;8.52;1.55;;;;;;;;;;5069726;28;20938;-68
2022/07/26 12:35:24;;;;;;;5.63;1.23;;;;;;;;;;5093365;28;20046;-68
2022/07/26 12:37:52;;;;;;;5.43;1.10;;;;;;;;;;5086754;28;20044;-68
2022/07/26 12:40:18;;;;;;;6.75;1.15;;;;;;;;;;5064395;28;20052;-68
2022/07/26 12:42:55;;;;;;;4.38;1.00;;;;;;;;;;5083483;28;20063;-67
2022/07/26 12:45:23;;;;;;;5.22;1.10;;;;;;;;;;5082675;28;20040;-67
2022/07/26 12:47:50;;;;;;;8.35;1.30;;;;;;;;;;5065560;28;20051;-67
2022/07/26 12:50:18;;;;;;;6.55;1.10;;;;;;;;;;5084412;28;20036;-67
2022/07/26 12:52:44;;;;;;;4.07;1.00;;;;;;;;;;5068787;28;20122;-67
2022/07/26 12:55:13;;;;;;;3.35;0.88;;;;;;;;;;5079923;28;20481;-67
2022/07/26 12:57:39;;;;;;;3.15;1.00;;;;;;;;;;5084617;28;20516;-67
2022/07/26 13:00:06;;;;;;;4.50;1.10;;;;;;;;;;5082987;28;20036;-68
2022/07/26 13:02:33;;;;;;;6.53;1.30;;;;;;;;;;5058418;28;20123;-68
2022/07/26 13:05:01;;;;;;;5.78;0.80;;;;;;;;;;5083134;28;20041;-68
2022/07/26 13:07:27;;;;;;;4.57;1.13;;;;;;;;;;5087945;28;20035;-68
2022/07/26 13:09:53;;;;;;;6.22;1.10;;;;;;;;;;5088421;28;20036;-68
2022/07/26 13:12:19;;;;;;;5.75;1.25;;;;;;;;;;5086000;28;20051;-67
2022/07/26 13:14:45;;;;;;;4.55;0.75;;;;;;;;;;5087969;28;20610;-67
2022/07/26 13:17:11;;;;;;;5.90;0.88;;;;;;;;;;5085955;28;20501;-68
2022/07/26 13:19:37;;;;;;;5.35;0.95;;;;;;;;;;5062175;28;20039;-68
2022/07/26 13:22:04;;;;;;;4.53;0.88;;;;;;;;;;5071034;28;20484;-68
2022/07/26 13:24:31;;;;;;;6.50;1.00;;;;;;;;;;5077645;28;20045;-68
2022/07/26 13:26:58;;;;;;;4.10;1.00;;;;;;;;;;5084421;28;20047;-68
2022/07/26 13:29:24;;;;;;;6.57;1.05;;;;;;;;;;5086912;28;20047;-68
2022/07/26 13:31:50;;;;;;;3.53;1.08;;;;;;;;;;5058149;28;20124;-68
2022/07/26 13:34:17;;;;;;;5.25;0.82;;;;;;;;;;5060272;28;20040;-68
2022/07/26 13:36:44;;;;;;;3.72;0.68;;;;;;;;;;5075037;28;20489;-71
2022/07/26 13:39:10;;;;;;;4.90;0.90;;;;;;;;;;5088600;28;20040;-70
2022/07/26 13:41:36;;;;;;;4.05;1.52;;;;;;;;;;5072215;28;20405;-71
2022/07/26 13:44:03;;;;;;;5.75;1.10;;;;;;;;;;5081867;28;20160;-71
2022/07/26 13:46:29;;;;;;;4.93;0.88;;;;;;;;;;5045172;28;20481;-72
2022/07/26 13:48:59;;;;;;;3.83;0.95;;;;;;;;;;5082214;28;20044;-71
2022/07/26 13:51:58;;;;;;;4.75;1.00;;;;;;;;;;5087760;28;20090;-71
2022/07/26 13:54:18;;;;;;;6.22;1.30;;;;;;;;;;5069664;28;20408;-70
2022/07/26 13:56:44;;;;;;;8.38;1.15;;;;;;;;;;5091855;28;20493;-70
2022/07/26 13:59:11;;;;;;;4.68;1.10;;;;;;;;;;5074550;28;20039;-69
2022/07/26 14:01:38;;;;;;;6.13;1.00;;;;;;;;;;5073374;28;20399;-70
2022/07/26 14:04:05;;;;;;;4.82;1.10;;;;;;;;;;5092131;28;20044;-70
2022/07/26 14:06:31;;;;;;;3.60;0.90;;;;;;;;;;5090343;28;20036;-69
2022/07/26 14:08:57;;;;;;;3.83;0.98;;;;;;;;;;5091873;28;20070;-70
2022/07/26 14:11:24;;;;;;;4.63;1.15;;;;;;;;;;5083020;28;20032;-69
2022/07/26 14:13:50;;;;;;;9.73;1.17;;;;;;;;;;5076031;28;20068;-70
2022/07/26 14:16:16;;;;;;;5.05;1.00;;;;;;;;;;5076716;28;20392;-69
2022/07/26 14:18:42;;;;;;;5.45;1.08;;;;;;;;;;5082698;28;20035;-70
2022/07/26 14:21:09;;;;;;;4.07;0.98;;;;;;;;;;5082244;28;20032;-70
2022/07/26 14:23:35;;;;;;;3.70;0.85;;;;;;;;;;5091191;28;20397;-70
2022/07/26 14:26:01;;;;;;;3.05;1.00;;;;;;;;;;5073353;28;20048;-69
2022/07/26 14:28:27;;;;;;;3.13;1.00;;;;;;;;;;5058440;28;20071;-69
2022/07/26 14:30:53;;;;;;;7.40;1.17;;;;;;;;;;5091385;28;20039;-69
2022/07/26 14:33:19;;;;;;;5.43;0.95;;;;;;;;;;5100052;28;20035;-69
2022/07/26 14:35:45;;;;;;;2.88;0.93;;;;;;;;;;5090197;28;20153;-69
2022/07/26 14:38:11;;;;;;;3.00;0.82;;;;;;;;;;5073702;28;20067;-69
2022/07/26 14:40:38;;;;;;;4.72;0.88;;;;;;;;;;5091330;28;20043;-69
2022/07/26 14:43:04;;;;;;;2.45;0.85;;;;;;;;;;5073140;28;20040;-69
2022/07/26 14:45:30;;;;;;;4.60;0.80;;;;;;;;;;5093550;28;20131;-69
2022/07/26 14:47:56;;;;;;;4.75;1.00;;;;;;;;;;5090525;28;20040;-69